Time;durP1;ratioP1;P1;durP2;ratioP2;P2;SDS_P1;SDS_P2;PMS_P1;PMS_P2;Temp;Humidity;BMP_temperature;BMP_pressure;BME280_temperature;BME280_humidity;BME280_pressure;Samples;Min_cycle;Max_cycle;Signal;HPM_P1;HPM_P2
2022/01/02 00:00:14;;;;;;;1.38;1.00;;;5.00;99.90;;;;;;4995056;28;20064;-69
2022/01/02 00:02:42;;;;;;;1.67;1.13;;;5.00;99.90;;;;;;4995189;28;20046;-69
2022/01/02 00:05:14;;;;;;;0.70;0.70;;;4.90;99.90;;;;;;4995538;28;20053;-69
2022/01/02 00:08:16;;;;;;;1.38;1.10;;;4.90;99.90;;;;;;4995537;28;20049;-69
2022/01/02 00:10:49;;;;;;;1.70;0.93;;;4.90;99.90;;;;;;4982627;28;20065;-69
2022/01/02 00:13:34;;;;;;;1.15;0.90;;;4.80;99.90;;;;;;4995802;28;20046;-69
2022/01/02 00:16:06;;;;;;;2.92;2.13;;;4.80;99.90;;;;;;4994770;28;20045;-69
2022/01/02 00:18:36;;;;;;;1.40;0.98;;;4.70;99.90;;;;;;4994777;28;20085;-68
2022/01/02 00:21:09;;;;;;;1.90;1.02;;;4.60;99.90;;;;;;4976801;28;20042;-69
2022/01/02 00:23:59;;;;;;;1.10;0.73;;;4.60;99.90;;;;;;4976281;28;20061;-69
2022/01/02 00:26:42;;;;;;;4.22;1.08;;;4.50;99.90;;;;;;4975140;28;20042;-69
2022/01/02 00:29:10;;;;;;;1.13;0.95;;;4.40;99.90;;;;;;4975142;28;20054;-69
2022/01/02 00:31:39;;;;;;;2.53;0.90;;;4.40;99.90;;;;;;4979208;28;20121;-68
2022/01/02 00:34:07;;;;;;;1.48;0.82;;;4.30;99.90;;;;;;4979208;28;20043;-69
2022/01/02 00:36:34;;;;;;;2.83;0.98;;;4.30;99.90;;;;;;4979471;28;20437;-69
2022/01/02 00:39:02;;;;;;;2.42;1.30;;;4.20;99.90;;;;;;4976943;28;20046;-69
2022/01/02 00:42:09;;;;;;;2.83;1.50;;;4.20;99.90;;;;;;4977841;28;20096;-69
2022/01/02 00:44:57;;;;;;;3.92;1.58;;;4.10;99.90;;;;;;4936142;29;20055;-69
2022/01/02 00:47:36;;;;;;;2.40;1.50;;;4.10;99.90;;;;;;4978617;28;20070;-68
2022/01/02 00:50:14;;;;;;;2.70;1.38;;;4.00;99.90;;;;;;4978323;28;20054;-69
2022/01/02 00:52:44;;;;;;;2.28;1.42;;;4.00;99.90;;;;;;4989888;28;20537;-69
2022/01/02 00:55:21;;;;;;;1.63;1.30;;;4.00;99.90;;;;;;4996162;28;20262;-69
2022/01/02 00:58:16;;;;;;;3.17;1.60;;;3.90;99.90;;;;;;4982647;28;20129;-70
2022/01/02 01:00:48;;;;;;;4.53;1.38;;;3.90;99.90;;;;;;4975353;28;20472;-69
2022/01/02 01:03:22;;;;;;;2.05;1.48;;;3.90;99.90;;;;;;4993700;28;20061;-69
2022/01/02 01:05:53;;;;;;;2.45;1.60;;;3.90;99.90;;;;;;4978368;28;20549;-69
2022/01/02 01:08:22;;;;;;;2.78;1.70;;;3.90;99.90;;;;;;4978566;28;20050;-69
2022/01/02 01:10:50;;;;;;;4.65;1.35;;;4.00;99.90;;;;;;4977439;28;20243;-69
2022/01/02 01:13:17;;;;;;;6.60;1.73;;;4.00;99.90;;;;;;4977281;28;20548;-69
2022/01/02 01:15:45;;;;;;;1.83;1.60;;;4.00;99.90;;;;;;4978671;28;20065;-69
2022/01/02 01:18:12;;;;;;;1.80;1.65;;;4.10;99.90;;;;;;4978859;28;20513;-69
2022/01/02 01:20:43;;;;;;;0.98;0.90;;;4.10;99.90;;;;;;4996821;28;20053;-68
2022/01/02 01:23:15;;;;;;;1.10;1.00;;;4.30;99.90;;;;;;4977957;28;20050;-68
2022/01/02 01:25:46;;;;;;;1.80;1.00;;;4.30;99.90;;;;;;4976091;28;20116;-69
2022/01/02 01:28:15;;;;;;;5.35;1.15;;;4.30;99.90;;;;;;4977054;28;20444;-69
2022/01/02 01:30:43;;;;;;;1.40;1.27;;;4.30;99.90;;;;;;4975567;28;20050;-68
2022/01/02 01:33:10;;;;;;;1.52;1.00;;;4.40;99.90;;;;;;4976583;28;20457;-69
2022/01/02 01:35:38;;;;;;;2.17;1.08;;;4.40;99.90;;;;;;4978989;28;20112;-68
2022/01/02 01:38:05;;;;;;;1.17;0.80;;;4.40;99.90;;;;;;4977410;28;20046;-69
2022/01/02 01:40:43;;;;;;;;;;;4.50;99.90;;;;;;4976439;28;20157;-69
2022/01/02 01:43:13;;;;;;;1.20;0.75;;;4.50;99.90;;;;;;4960122;28;19926;-68
2022/01/02 01:45:42;;;;;;;0.68;0.68;;;4.60;99.90;;;;;;4976085;28;20043;-68
2022/01/02 01:48:09;;;;;;;1.90;1.10;;;4.70;99.90;;;;;;4976547;28;20042;-69
2022/01/02 01:50:41;;;;;;;33.08;12.68;;;4.80;99.90;;;;;;4975628;28;20058;-69
2022/01/02 01:53:17;;;;;;;0.52;0.50;;;4.90;99.90;;;;;;4991908;28;20049;-69
2022/01/02 01:55:44;;;;;;;;;;;5.00;99.90;;;;;;4997561;28;20042;-68
2022/01/02 01:58:13;;;;;;;1.05;0.80;;;5.00;99.90;;;;;;5008632;28;20323;-69
2022/01/02 02:00:43;;;;;;;0.93;0.60;;;5.10;99.90;;;;;;4994584;28;20547;-69
2022/01/02 02:03:25;;;;;;;0.85;0.60;;;5.10;99.90;;;;;;4994573;28;20057;-69
2022/01/02 02:05:52;;;;;;;;;;;5.10;99.90;;;;;;4997446;28;20530;-69
2022/01/02 02:08:20;;;;;;;0.90;0.55;;;5.10;99.90;;;;;;4997416;28;19925;-70
2022/01/02 02:10:54;;;;;;;4.68;0.88;;;5.20;99.90;;;;;;4996308;28;20050;-69
2022/01/02 02:13:22;;;;;;;0.57;0.52;;;5.30;99.90;;;;;;4994949;28;20235;-69
2022/01/02 02:15:51;;;;;;;1.02;0.50;;;5.30;99.90;;;;;;5011429;28;20141;-69
2022/01/02 02:18:19;;;;;;;0.50;0.50;;;5.30;99.90;;;;;;5010438;28;20061;-68
2022/01/02 02:20:46;;;;;;;2.42;1.10;;;5.40;99.90;;;;;;4978299;28;20489;-68
2022/01/02 02:23:22;;;;;;;1.35;0.82;;;5.30;99.90;;;;;;4975977;28;20122;-69
2022/01/02 02:25:49;;;;;;;0.73;0.52;;;5.30;99.90;;;;;;4974805;28;20420;-69
2022/01/02 02:28:17;;;;;;;0.77;0.57;;;5.30;99.90;;;;;;4977172;28;20047;-69
2022/01/02 02:30:48;;;;;;;0.70;0.43;;;5.40;99.90;;;;;;4975568;28;20054;-69
2022/01/02 02:33:15;;;;;;;;;;;5.40;99.90;;;;;;4975417;28;20050;-69
2022/01/02 02:35:46;;;;;;;0.35;0.35;;;5.40;99.90;;;;;;4975346;28;19929;-68
2022/01/02 02:38:15;;;;;;;0.55;0.47;;;5.30;99.90;;;;;;4975592;28;20569;-68
2022/01/02 02:40:43;;;;;;;0.40;0.40;;;5.30;99.90;;;;;;4974811;28;20049;-69
2022/01/02 02:43:30;;;;;;;1.30;0.50;;;5.30;99.90;;;;;;4975064;28;20050;-69
2022/01/02 02:49:00;;;;;;;0.43;0.40;;;5.20;99.90;;;;;;4974700;28;20054;-69
2022/01/02 02:51:56;;;;;;;1.50;0.70;;;5.20;99.90;;;;;;4976267;28;20054;-69
2022/01/02 02:54:31;;;;;;;0.93;0.60;;;5.20;99.90;;;;;;4994545;28;20053;-69
2022/01/02 02:57:01;;;;;;;0.38;0.35;;;5.10;99.90;;;;;;4994624;28;20349;-69
2022/01/02 02:59:32;;;;;;;0.93;0.50;;;5.00;99.90;;;;;;4995618;28;20503;-69
2022/01/02 03:02:00;;;;;;;0.50;0.50;;;5.00;99.90;;;;;;5010720;28;20041;-69
2022/01/02 03:04:32;;;;;;;0.75;0.70;;;4.80;99.90;;;;;;5011087;28;20045;-69
2022/01/02 03:06:58;;;;;;;;;;;4.80;99.90;;;;;;4994451;28;20424;-69
2022/01/02 03:10:10;;;;;;;0.77;0.43;;;4.70;99.90;;;;;;4992889;28;20019;-69
2022/01/02 03:12:19;;;;;;;0.45;0.45;;;4.70;99.90;;;;;;4994246;28;20054;-70
2022/01/02 03:14:49;;;;;;;0.63;0.60;;;4.60;99.90;;;;;;4994001;28;20046;-69
2022/01/02 03:17:18;;;;;;;1.52;0.57;;;4.50;99.90;;;;;;4994525;28;20140;-69
2022/01/02 03:19:45;;;;;;;0.75;0.75;;;4.40;99.90;;;;;;4985945;28;20038;-69
2022/01/02 03:22:14;;;;;;;1.20;0.80;;;4.30;99.90;;;;;;4975330;28;20046;-69
2022/01/02 03:24:41;;;;;;;;;;;4.30;99.90;;;;;;4976704;28;20043;-68
2022/01/02 03:27:08;;;;;;;0.90;0.50;;;4.20;99.90;;;;;;4975018;28;20221;-69
2022/01/02 03:29:35;;;;;;;;;;;4.20;99.90;;;;;;4974016;28;20057;-68
2022/01/02 03:32:02;;;;;;;0.75;0.60;;;4.20;99.90;;;;;;4974406;28;19926;-69
2022/01/02 03:34:29;;;;;;;1.10;0.70;;;4.10;99.90;;;;;;4976563;28;20042;-68
2022/01/02 03:36:56;;;;;;;1.00;0.70;;;4.10;99.90;;;;;;4974556;28;20046;-69
2022/01/02 03:39:23;;;;;;;;;;;4.10;99.90;;;;;;4976252;28;20046;-68
2022/01/02 03:41:50;;;;;;;1.25;0.68;;;4.10;99.90;;;;;;4974067;28;19926;-68
2022/01/02 03:44:17;;;;;;;0.57;0.55;;;4.20;99.90;;;;;;4974354;28;20081;-68
2022/01/02 03:46:44;;;;;;;0.55;0.55;;;4.20;99.90;;;;;;4974172;28;20046;-69
2022/01/02 03:49:11;;;;;;;0.88;0.73;;;4.30;99.90;;;;;;4975949;28;20281;-68
2022/01/02 03:51:39;;;;;;;0.40;0.40;;;4.40;99.90;;;;;;4977017;28;20050;-69
2022/01/02 03:54:06;;;;;;;;;;;4.40;99.90;;;;;;4995553;28;20057;-69
2022/01/02 03:56:34;;;;;;;0.47;0.40;;;4.40;99.90;;;;;;4999934;28;20011;-69
2022/01/02 03:59:01;;;;;;;;;;;4.40;99.90;;;;;;4991296;28;20046;-68
2022/01/02 04:01:27;;;;;;;0.60;0.60;;;4.50;99.90;;;;;;4993048;28;20422;-69
2022/01/02 04:03:54;;;;;;;1.70;0.50;;;4.50;99.90;;;;;;4994894;28;20061;-69
2022/01/02 04:06:21;;;;;;;;;;;4.50;99.90;;;;;;4998534;28;20582;-68
2022/01/02 04:08:48;;;;;;;0.60;0.60;;;4.50;99.90;;;;;;4997368;28;20020;-69
2022/01/02 04:11:14;;;;;;;;;;;4.60;99.90;;;;;;4999819;28;20050;-69
2022/01/02 04:13:41;;;;;;;0.73;0.63;;;4.60;99.90;;;;;;4997258;28;19932;-69
2022/01/02 04:16:08;;;;;;;0.30;0.30;;;4.70;99.90;;;;;;4998564;28;20045;-68
2022/01/02 04:18:35;;;;;;;0.50;0.50;;;4.70;99.90;;;;;;4984110;28;20073;-69
2022/01/02 04:21:02;;;;;;;;;;;4.80;99.90;;;;;;4979192;28;20149;-68
2022/01/02 04:23:28;;;;;;;0.63;0.63;;;4.80;99.90;;;;;;4977723;28;20379;-69
2022/01/02 04:25:55;;;;;;;;;;;4.90;99.90;;;;;;4978393;28;20058;-68
2022/01/02 04:28:23;;;;;;;1.42;0.50;;;5.00;99.90;;;;;;4977055;28;19926;-69
2022/01/02 04:30:50;;;;;;;1.42;0.70;;;5.00;99.90;;;;;;4976537;28;20034;-69
2022/01/02 04:33:17;;;;;;;0.40;0.40;;;5.00;99.90;;;;;;4977500;28;20046;-69
2022/01/02 04:35:46;;;;;;;0.63;0.63;;;5.00;99.90;;;;;;4977361;28;20133;-69
2022/01/02 04:38:14;;;;;;;;;;;5.00;99.90;;;;;;4977835;28;20046;-69
2022/01/02 04:40:42;;;;;;;0.50;0.50;;;5.00;99.90;;;;;;4977561;28;20284;-69
2022/01/02 04:43:08;;;;;;;0.90;0.73;;;5.00;99.90;;;;;;4977224;28;20479;-69
2022/01/02 04:45:36;;;;;;;0.47;0.47;;;5.00;99.90;;;;;;4976486;28;20054;-70
2022/01/02 04:48:04;;;;;;;1.05;0.73;;;5.00;99.90;;;;;;4977410;28;20065;-69
2022/01/02 04:50:31;;;;;;;0.50;0.50;;;5.00;99.90;;;;;;4978381;28;20034;-69
2022/01/02 04:52:58;;;;;;;0.75;0.50;;;5.00;99.90;;;;;;4990701;28;20101;-69
2022/01/02 04:55:25;;;;;;;1.52;0.50;;;5.00;99.90;;;;;;5012161;28;20053;-69
2022/01/02 04:57:52;;;;;;;0.63;0.57;;;5.00;99.90;;;;;;4993385;28;20050;-69
2022/01/02 05:00:20;;;;;;;1.42;0.50;;;5.00;99.90;;;;;;4995647;28;20528;-69
2022/01/02 05:02:49;;;;;;;0.45;0.43;;;5.00;99.90;;;;;;4996290;28;20076;-69
2022/01/02 05:05:17;;;;;;;0.45;0.45;;;4.90;99.90;;;;;;4996585;28;20519;-70
2022/01/02 05:07:45;;;;;;;0.95;0.68;;;4.90;99.90;;;;;;4997402;28;20550;-69
2022/01/02 05:10:13;;;;;;;0.40;0.40;;;4.80;99.90;;;;;;4996233;28;20461;-69
2022/01/02 05:12:41;;;;;;;0.45;0.43;;;4.80;99.90;;;;;;4996026;28;20073;-69
2022/01/02 05:15:07;;;;;;;;;;;4.80;99.90;;;;;;4996186;28;20045;-69
2022/01/02 05:17:34;;;;;;;0.60;0.50;;;4.80;99.90;;;;;;4996967;28;20374;-69
2022/01/02 05:20:01;;;;;;;;;;;4.70;99.90;;;;;;5002313;28;20046;-69
2022/01/02 05:22:29;;;;;;;1.73;0.80;;;4.70;99.90;;;;;;4961025;28;19922;-68
2022/01/02 05:24:56;;;;;;;0.63;0.50;;;4.70;99.90;;;;;;4975912;28;20528;-68
2022/01/02 05:27:24;;;;;;;0.80;0.57;;;4.70;99.90;;;;;;4976797;28;20050;-68
2022/01/02 05:29:50;;;;;;;0.88;0.77;;;4.80;99.90;;;;;;4977445;28;20038;-68
2022/01/02 05:32:17;;;;;;;;;;;4.80;99.90;;;;;;4979288;28;20062;-68
2022/01/02 05:34:44;;;;;;;0.40;0.40;;;4.80;99.90;;;;;;4976457;28;20399;-68
2022/01/02 05:37:11;;;;;;;3.22;0.40;;;4.80;99.90;;;;;;4977444;28;20104;-68
2022/01/02 05:39:38;;;;;;;0.57;0.40;;;4.80;99.90;;;;;;4975799;28;20505;-68
2022/01/02 05:42:05;;;;;;;0.93;0.50;;;4.80;99.90;;;;;;4975738;28;20042;-68
2022/01/02 05:44:32;;;;;;;0.45;0.45;;;4.80;99.90;;;;;;4976322;28;20261;-68
2022/01/02 05:46:59;;;;;;;;;;;4.90;99.90;;;;;;4977115;28;20108;-68
2022/01/02 05:49:26;;;;;;;0.40;0.40;;;4.80;99.90;;;;;;4975496;28;19979;-68
2022/01/02 05:51:53;;;;;;;1.30;1.17;;;4.80;99.90;;;;;;4981035;28;20406;-69
2022/01/02 05:54:21;;;;;;;0.75;0.60;;;4.80;99.90;;;;;;5011856;28;20061;-68
2022/01/02 05:56:50;;;;;;;2.17;1.00;;;4.90;99.90;;;;;;4995360;28;20046;-68
2022/01/02 05:59:18;;;;;;;1.23;1.00;;;4.90;99.90;;;;;;4991650;28;20061;-68
2022/01/02 06:01:45;;;;;;;;;;;4.90;99.90;;;;;;4996480;28;20555;-68
2022/01/02 06:04:12;;;;;;;1.35;0.65;;;4.90;99.90;;;;;;5011000;28;19979;-68
2022/01/02 06:06:39;;;;;;;0.73;0.68;;;4.90;99.90;;;;;;4996384;28;20057;-67
2022/01/02 06:09:07;;;;;;;0.55;0.52;;;4.80;99.90;;;;;;4995150;28;20050;-67
2022/01/02 06:11:36;;;;;;;5.38;0.60;;;4.80;99.90;;;;;;5010750;28;20057;-68
2022/01/02 06:14:03;;;;;;;;;;;4.80;99.90;;;;;;4997230;28;20052;-69
2022/01/02 06:16:31;;;;;;;0.77;0.40;;;4.80;99.90;;;;;;5010480;28;19930;-67
2022/01/02 06:18:58;;;;;;;0.50;0.50;;;4.80;99.90;;;;;;4980061;28;20372;-68
2022/01/02 06:21:25;;;;;;;;;;;4.80;99.90;;;;;;5011789;28;20060;-67
2022/01/02 06:23:52;;;;;;;1.02;0.93;;;4.70;99.90;;;;;;5011663;28;19929;-68
2022/01/02 06:26:19;;;;;;;;;;;4.70;99.90;;;;;;5011016;28;20054;-67
2022/01/02 06:28:46;;;;;;;7.28;1.20;;;4.60;99.90;;;;;;5011374;28;19968;-68
2022/01/02 06:31:13;;;;;;;2.25;1.20;;;4.60;99.90;;;;;;4994738;28;20140;-68
2022/01/02 06:33:42;;;;;;;5.30;1.30;;;4.50;99.90;;;;;;4994739;28;20115;-68
2022/01/02 06:36:09;;;;;;;;;;;4.50;99.90;;;;;;4995090;28;20136;-67
2022/01/02 06:38:36;;;;;;;1.17;0.75;;;4.40;99.90;;;;;;4996732;28;19933;-68
2022/01/02 06:41:03;;;;;;;17.98;8.02;;;4.40;99.90;;;;;;4995501;28;20111;-67
2022/01/02 06:43:32;;;;;;;0.93;0.75;;;4.30;99.90;;;;;;4994440;28;20057;-67
2022/01/02 06:45:59;;;;;;;2.45;0.80;;;4.30;99.90;;;;;;4994335;28;20124;-68
2022/01/02 06:48:27;;;;;;;1.25;0.88;;;4.30;99.90;;;;;;4994473;28;20060;-68
2022/01/02 06:50:53;;;;;;;;;;;4.30;99.90;;;;;;4994060;28;20047;-67
2022/01/02 06:53:20;;;;;;;1.25;0.90;;;4.30;99.90;;;;;;5011701;28;19925;-67
2022/01/02 06:55:48;;;;;;;2.97;1.35;;;4.20;99.90;;;;;;5010273;28;20034;-68
2022/01/02 06:58:15;;;;;;;1.52;1.00;;;4.20;99.90;;;;;;4991844;28;20049;-68
2022/01/02 07:00:42;;;;;;;;;;;4.20;99.90;;;;;;5010595;28;20164;-68
2022/01/02 07:03:09;;;;;;;;;;;4.20;99.90;;;;;;5010843;28;19948;-67
2022/01/02 07:05:36;;;;;;;2.35;1.50;;;4.20;99.90;;;;;;4993921;28;19929;-67
2022/01/02 07:08:04;;;;;;;2.25;1.52;;;4.20;99.90;;;;;;4994219;28;20061;-68
2022/01/02 07:10:33;;;;;;;0.80;0.80;;;4.20;99.90;;;;;;4993767;28;20045;-67
2022/01/02 07:13:00;;;;;;;1.40;1.13;;;4.20;99.90;;;;;;4995609;28;20504;-67
2022/01/02 07:15:27;;;;;;;2.60;1.25;;;4.10;99.90;;;;;;4995832;28;20137;-66
2022/01/02 07:17:54;;;;;;;2.08;1.27;;;4.10;99.90;;;;;;4994879;28;20096;-67
2022/01/02 07:20:20;;;;;;;;;;;4.00;99.90;;;;;;4982917;28;20056;-68
2022/01/02 07:22:47;;;;;;;2.60;1.60;;;4.00;99.90;;;;;;4976867;28;19988;-67
2022/01/02 07:25:14;;;;;;;2.20;1.20;;;4.00;99.90;;;;;;4975635;28;20057;-68
2022/01/02 07:27:41;;;;;;;2.22;1.30;;;3.90;99.90;;;;;;4976094;28;20074;-68
2022/01/02 07:30:08;;;;;;;;;;;3.90;99.90;;;;;;4976438;28;20357;-67
2022/01/02 07:32:37;;;;;;;4.93;2.70;;;4.00;99.90;;;;;;4975880;28;19965;-67
2022/01/02 07:35:06;;;;;;;4.78;2.40;;;4.00;99.90;;;;;;4976020;28;20057;-67
2022/01/02 07:37:34;;;;;;;1.83;1.55;;;4.20;99.90;;;;;;4976125;28;20046;-68
2022/01/02 07:40:03;;;;;;;2.25;1.40;;;4.40;99.90;;;;;;4979219;28;20047;-55
2022/01/02 07:42:30;;;;;;;2.97;1.45;;;4.70;99.90;;;;;;4979990;28;20077;-54
2022/01/02 07:45:05;;;;;;;1.83;1.30;;;5.00;99.90;;;;;;4979504;28;20060;-57
2022/01/02 07:47:32;;;;;;;1.20;0.95;;;5.30;99.90;;;;;;4980747;28;20929;-58
2022/01/02 07:49:58;;;;;;;;;;;5.60;99.90;;;;;;4979565;28;20050;-57
2022/01/02 07:52:25;;;;;;;4.03;1.60;;;5.80;99.90;;;;;;4990292;28;19983;-57
2022/01/02 07:54:52;;;;;;;;;;;5.90;99.90;;;;;;5000675;28;20046;-57
2022/01/02 07:57:19;;;;;;;2.78;1.30;;;5.90;99.90;;;;;;4998142;28;19925;-57
2022/01/02 07:59:46;;;;;;;1.45;1.20;;;5.80;99.90;;;;;;4998115;28;20097;-57
2022/01/02 08:02:40;;;;;;;3.45;1.77;;;5.80;99.90;;;;;;4999581;28;20105;-57
2022/01/02 08:05:10;;;;;;;7.47;3.00;;;5.80;99.90;;;;;;4998594;28;20049;-57
2022/01/02 08:07:40;;;;;;;5.53;3.20;;;5.80;99.90;;;;;;4999585;28;20506;-58
2022/01/02 08:10:08;;;;;;;5.85;2.67;;;5.80;99.90;;;;;;4998243;28;20054;-57
2022/01/02 08:12:35;;;;;;;4.15;2.28;;;5.80;99.90;;;;;;4998965;28;20053;-57
2022/01/02 08:15:02;;;;;;;4.20;2.28;;;5.90;99.90;;;;;;4997432;28;20046;-58
2022/01/02 08:17:29;;;;;;;3.67;1.85;;;5.80;99.90;;;;;;4998121;28;20440;-58
2022/01/02 08:19:56;;;;;;;2.42;1.60;;;5.80;99.90;;;;;;4989538;28;20058;-57
2022/01/02 08:22:23;;;;;;;2.08;1.70;;;5.80;99.90;;;;;;4979858;28;20058;-57
2022/01/02 08:24:49;;;;;;;;;;;5.70;99.90;;;;;;4980449;28;20070;-57
2022/01/02 08:27:16;;;;;;;2.83;1.67;;;5.70;99.90;;;;;;4979426;28;19980;-58
2022/01/02 08:29:43;;;;;;;2.45;1.55;;;5.60;99.90;;;;;;4979128;28;20117;-57
2022/01/02 08:32:09;;;;;;;;;;;5.60;99.90;;;;;;4979596;28;20042;-58
2022/01/02 08:34:36;;;;;;;2.45;1.73;;;5.60;99.90;;;;;;4979192;28;20027;-58
2022/01/02 08:37:03;;;;;;;;;;;5.70;99.90;;;;;;4980141;28;20097;-57
2022/01/02 08:39:30;;;;;;;2.83;2.00;;;5.70;99.90;;;;;;4976728;28;19961;-58
2022/01/02 08:41:57;;;;;;;2.47;1.38;;;5.90;99.90;;;;;;4979047;28;20189;-58
2022/01/02 08:44:24;;;;;;;2.90;1.98;;;6.20;99.90;;;;;;4979308;28;20637;-58
2022/01/02 08:46:51;;;;;;;3.25;2.00;;;6.60;99.90;;;;;;4978778;28;20046;-57
2022/01/02 08:49:18;;;;;;;2.00;1.40;;;7.00;99.90;;;;;;4977946;28;20096;-57
2022/01/02 08:51:46;;;;;;;2.15;1.80;;;7.50;99.90;;;;;;4982611;28;20828;-58
2022/01/02 08:54:13;;;;;;;4.15;2.08;;;7.90;99.90;;;;;;5013509;28;20057;-58
2022/01/02 08:56:39;;;;;;;3.50;2.17;;;8.40;99.90;;;;;;4997414;28;20303;-57
2022/01/02 08:59:06;;;;;;;2.58;1.70;;;8.90;99.90;;;;;;4994845;28;20540;-58
2022/01/02 09:01:33;;;;;;;9.93;1.80;;;9.30;99.90;;;;;;4998681;28;20586;-58
2022/01/02 09:04:00;;;;;;;;;;;9.60;99.90;;;;;;4997981;28;20092;-57
2022/01/02 09:06:27;;;;;;;3.20;1.60;;;10.00;99.90;;;;;;4998799;28;19948;-60
2022/01/02 09:08:55;;;;;;;;;;;10.30;99.90;;;;;;4997384;28;20062;-58
2022/01/02 09:11:22;;;;;;;;;;;10.60;99.50;;;;;;4999290;28;20847;-56
2022/01/02 09:13:49;;;;;;;2.72;1.58;;;10.70;97.90;;;;;;4995655;28;20552;-58
2022/01/02 09:16:16;;;;;;;2.65;1.63;;;10.80;96.60;;;;;;4978424;28;20053;-58
2022/01/02 09:18:43;;;;;;;3.22;1.52;;;10.80;95.50;;;;;;4982035;28;20073;-57
2022/01/02 09:21:10;;;;;;;3.88;1.58;;;10.80;96.00;;;;;;4977974;28;20464;-57
2022/01/02 09:23:37;;;;;;;1.95;1.30;;;10.70;96.00;;;;;;4978509;28;20042;-58
2022/01/02 09:26:03;;;;;;;2.92;1.75;;;10.70;97.80;;;;;;4976321;28;20536;-57
2022/01/02 09:28:30;;;;;;;3.67;1.45;;;10.80;98.40;;;;;;4978677;28;20536;-58
2022/01/02 09:30:57;;;;;;;;;;;10.90;98.10;;;;;;4978119;28;20049;-57
2022/01/02 09:33:23;;;;;;;1.67;1.20;;;11.10;97.10;;;;;;4978221;28;20431;-57
2022/01/02 09:35:50;;;;;;;2.83;1.83;;;11.40;95.40;;;;;;4978177;28;20050;-57
2022/01/02 09:38:17;;;;;;;;;;;11.60;93.70;;;;;;4978549;28;20113;-59
2022/01/02 09:40:44;;;;;;;2.78;1.77;;;11.70;91.60;;;;;;4977961;28;19988;-59
2022/01/02 09:43:11;;;;;;;3.78;1.55;;;11.70;90.50;;;;;;4978259;28;20288;-59
2022/01/02 09:45:38;;;;;;;;;;;11.70;90.80;;;;;;4978528;28;20050;-59
2022/01/02 09:48:07;;;;;;;3.67;1.60;;;11.60;91.70;;;;;;4977494;28;20003;-59
2022/01/02 09:50:35;;;;;;;4.40;1.80;;;11.50;92.70;;;;;;4978900;28;20046;-59
2022/01/02 09:53:02;;;;;;;4.05;1.65;;;11.40;93.00;;;;;;4992995;28;20073;-59
2022/01/02 09:55:29;;;;;;;;;;;11.30;92.30;;;;;;4998827;28;20042;-59
2022/01/02 09:57:59;;;;;;;1.80;1.23;;;11.20;93.80;;;;;;4992819;28;20433;-59
2022/01/02 10:00:27;;;;;;;1.65;1.33;;;11.20;94.40;;;;;;4976734;28;20066;-59
2022/01/02 10:03:01;;;;;;;3.05;1.65;;;11.30;94.40;;;;;;4985416;28;20045;-58
2022/01/02 10:05:30;;;;;;;1.85;1.75;;;11.60;93.70;;;;;;4997591;28;20607;-61
2022/01/02 10:07:57;;;;;;;2.20;1.60;;;11.90;92.90;;;;;;4997747;28;20490;-60
2022/01/02 10:10:33;;;;;;;2.80;1.73;;;12.20;91.20;;;;;;4997598;28;20103;-61
2022/01/02 10:13:02;;;;;;;1.83;1.33;;;12.40;90.80;;;;;;4992983;28;20095;-58
2022/01/02 10:15:31;;;;;;;2.80;1.50;;;12.50;89.90;;;;;;4998158;28;20038;-58
2022/01/02 10:18:00;;;;;;;6.43;1.63;;;12.60;89.50;;;;;;4993914;28;20129;-58
2022/01/02 10:20:37;;;;;;;2.50;1.80;;;12.70;88.40;;;;;;4998433;28;20509;-59
2022/01/02 10:23:09;;;;;;;;;;;12.80;85.40;;;;;;4982470;28;20046;-59
2022/01/02 10:25:45;;;;;;;2.38;1.50;;;13.00;82.70;;;;;;4982430;28;20387;-59
2022/01/02 10:28:21;;;;;;;3.10;1.77;;;13.20;82.00;;;;;;4982334;28;20054;-59
2022/01/02 10:30:49;;;;;;;2.47;1.83;;;13.40;80.30;;;;;;4982184;28;20432;-58
2022/01/02 10:33:16;;;;;;;2.45;1.50;;;13.40;79.20;;;;;;4981863;28;20054;-58
2022/01/02 10:35:44;;;;;;;2.17;1.98;;;13.30;78.50;;;;;;4981825;28;20390;-59
2022/01/02 10:38:17;;;;;;;2.58;1.67;;;13.30;79.60;;;;;;4981805;28;20560;-58
2022/01/02 10:40:44;;;;;;;2.90;1.60;;;13.30;81.10;;;;;;4981099;28;20124;-58
2022/01/02 10:43:23;;;;;;;;;;;13.30;81.50;;;;;;4982552;28;20525;-58
2022/01/02 10:45:50;;;;;;;3.35;2.08;;;13.60;80.50;;;;;;4992129;28;19933;-58
2022/01/02 10:48:30;;;;;;;2.05;1.85;;;13.80;78.20;;;;;;5001638;28;20084;-58
2022/01/02 10:51:02;;;;;;;3.63;2.08;;;14.00;77.20;;;;;;4994414;28;20046;-59
2022/01/02 10:53:30;;;;;;;3.72;2.05;;;14.20;75.00;;;;;;4994815;28;20095;-59
2022/01/02 10:55:57;;;;;;;8.30;2.33;;;14.30;75.10;;;;;;4982796;28;20078;-61
2022/01/02 10:58:26;;;;;;;2.35;2.10;;;14.40;75.00;;;;;;4993464;28;20046;-60
2022/01/02 11:00:55;;;;;;;4.68;2.38;;;14.60;74.10;;;;;;4995775;28;20460;-60
2022/01/02 11:03:29;;;;;;;4.28;2.00;;;14.80;73.40;;;;;;4995740;28;20135;-60
2022/01/02 11:06:26;;;;;;;2.80;1.92;;;15.00;71.20;;;;;;4996752;28;20050;-60
2022/01/02 11:08:57;;;;;;;3.13;1.73;;;15.30;70.40;;;;;;5004460;28;20058;-59
2022/01/02 11:11:24;;;;;;;2.72;1.85;;;15.60;69.50;;;;;;5011245;28;20662;-59
2022/01/02 11:13:51;;;;;;;2.03;1.30;;;15.80;66.80;;;;;;4995985;28;20378;-60
2022/01/02 11:16:19;;;;;;;1.95;1.52;;;16.00;65.20;;;;;;4996247;28;20096;-60
2022/01/02 11:18:47;;;;;;;1.95;1.48;;;16.20;65.90;;;;;;4996093;28;20080;-60
2022/01/02 11:21:14;;;;;;;1.92;1.65;;;16.40;65.10;;;;;;4995605;28;20045;-60
2022/01/02 11:23:49;;;;;;;5.93;2.35;;;16.60;62.70;;;;;;4997449;28;20120;-60
2022/01/02 11:26:28;;;;;;;2.50;1.63;;;16.80;60.90;;;;;;4996784;28;20049;-60
2022/01/02 11:29:13;;;;;;;2.85;1.92;;;17.10;62.00;;;;;;4995570;28;20045;-60
2022/01/02 11:31:43;;;;;;;1.10;0.82;;;17.50;61.60;;;;;;4996534;28;20053;-60
2022/01/02 11:34:23;;;;;;;1.13;0.60;;;17.90;49.30;;;;;;4996451;28;20475;-59
2022/01/02 11:36:52;;;;;;;0.85;0.65;;;18.30;43.40;;;;;;4995924;28;20104;-59
2022/01/02 11:39:19;;;;;;;0.77;0.50;;;18.50;42.60;;;;;;4994258;28;20046;-61
2022/01/02 11:41:50;;;;;;;0.80;0.65;;;18.80;42.30;;;;;;5011995;28;20061;-59
2022/01/02 11:44:22;;;;;;;1.75;0.73;;;19.00;39.70;;;;;;4995745;28;20416;-60
2022/01/02 11:46:55;;;;;;;0.70;0.70;;;18.90;38.30;;;;;;4995629;28;20054;-60
2022/01/02 11:49:40;;;;;;;0.85;0.40;;;18.90;38.60;;;;;;4995606;28;20052;-61
2022/01/02 11:52:12;;;;;;;0.45;0.40;;;18.80;38.60;;;;;;4997651;28;20053;-60
2022/01/02 11:54:46;;;;;;;1.95;0.52;;;18.90;38.90;;;;;;4996124;28;20396;-60
2022/01/02 11:57:14;;;;;;;1.70;0.60;;;19.00;37.80;;;;;;4996383;28;20053;-60
2022/01/02 11:59:45;;;;;;;0.68;0.68;;;19.10;37.30;;;;;;4976762;28;20035;-60
2022/01/02 12:02:20;;;;;;;1.27;0.63;;;19.20;37.20;;;;;;4976831;28;20555;-60
2022/01/02 12:04:59;;;;;;;1.65;0.63;;;19.10;36.20;;;;;;4977212;28;20552;-60
2022/01/02 12:07:41;;;;;;;1.95;0.73;;;19.10;36.00;;;;;;4975722;28;20536;-60
2022/01/02 12:10:17;;;;;;;1.35;0.80;;;19.00;37.20;;;;;;4976012;28;20108;-60
2022/01/02 12:12:59;;;;;;;1.30;0.77;;;19.00;36.10;;;;;;4976465;28;20565;-60
2022/01/02 12:15:35;;;;;;;0.55;0.55;;;19.00;35.80;;;;;;4976737;28;20299;-60
2022/01/02 12:18:25;;;;;;;2.85;0.60;;;19.00;36.80;;;;;;4989208;28;20038;-59
2022/01/02 12:23:34;;;;;;;;;;;18.70;35.60;;;;;;4977225;28;20058;-61
2022/01/02 12:26:11;;;;;;;0.85;0.63;;;18.60;36.60;;;;;;4979732;28;19926;-60
2022/01/02 12:28:46;;;;;;;2.10;0.70;;;18.40;37.70;;;;;;4979701;28;20552;-60
2022/01/02 12:31:18;;;;;;;1.10;1.00;;;18.10;37.90;;;;;;4980135;28;20050;-60
2022/01/02 12:33:45;;;;;;;1.05;0.60;;;17.90;37.80;;;;;;4980804;28;20050;-60
2022/01/02 12:36:19;;;;;;;1.52;0.90;;;17.70;37.90;;;;;;4979038;28;20042;-60
2022/01/02 12:38:54;;;;;;;1.77;0.63;;;17.50;39.00;;;;;;4980436;28;20112;-60
2022/01/02 12:41:24;;;;;;;3.13;1.02;;;17.30;39.90;;;;;;4979693;28;20042;-60
2022/01/02 12:43:55;;;;;;;2.20;0.70;;;17.20;40.40;;;;;;4979296;28;20042;-60
2022/01/02 12:46:43;;;;;;;2.25;0.90;;;17.30;40.30;;;;;;4979955;28;20107;-59
2022/01/02 12:49:22;;;;;;;0.98;0.73;;;17.60;40.30;;;;;;4979339;28;20057;-60
2022/01/02 12:51:51;;;;;;;1.50;1.00;;;17.90;39.70;;;;;;4981955;28;20053;-60
2022/01/02 12:54:27;;;;;;;1.20;1.00;;;18.20;39.50;;;;;;4998188;28;20053;-60
2022/01/02 12:56:58;;;;;;;2.88;1.08;;;18.40;38.70;;;;;;4998643;28;20041;-61
2022/01/02 12:59:29;;;;;;;2.72;1.02;;;18.40;39.20;;;;;;4981870;28;20039;-58
2022/01/02 13:02:01;;;;;;;1.80;1.10;;;18.40;38.70;;;;;;4979619;28;20097;-58
2022/01/02 13:04:34;;;;;;;3.42;0.80;;;18.30;38.80;;;;;;4979001;28;20567;-58
2022/01/02 13:07:04;;;;;;;2.53;1.00;;;18.30;38.70;;;;;;4979596;28;20050;-58
2022/01/02 13:09:40;;;;;;;1.98;1.30;;;18.40;38.40;;;;;;4978773;28;20441;-58
2022/01/02 13:12:14;;;;;;;2.85;1.33;;;18.50;38.60;;;;;;4977440;28;20054;-58
2022/01/02 13:14:45;;;;;;;6.05;1.20;;;18.70;38.10;;;;;;4978911;28;20647;-58
2022/01/02 13:17:23;;;;;;;2.35;1.27;;;18.80;37.10;;;;;;4985855;28;20559;-58
2022/01/02 13:20:04;;;;;;;1.38;1.25;;;19.00;37.30;;;;;;4997852;28;20041;-68
2022/01/02 13:22:34;;;;;;;5.32;1.25;;;19.00;37.90;;;;;;4998911;28;20201;-58
2022/01/02 13:25:42;;;;;;;2.45;1.10;;;19.00;36.20;;;;;;4999188;28;20216;-58